sensor_id;sensor_type;location;lat;lon;timestamp;P1;durP1;ratioP1;P2;durP2;ratioP2
51438;SDS011;38816;51.142;-0.974;2024-03-02T00:00:57;14.07;;;3.80;;
51438;SDS011;38816;51.142;-0.974;2024-03-02T00:03:22;6.45;;;3.53;;
51438;SDS011;38816;51.142;-0.974;2024-03-02T00:05:51;10.75;;;2.97;;
51438;SDS011;38816;51.142;-0.974;2024-03-02T00:08:24;4.55;;;2.97;;
51438;SDS011;38816;51.142;-0.974;2024-03-02T00:10:59;4.85;;;3.85;;
51438;SDS011;38816;51.142;-0.974;2024-03-02T00:13:27;4.13;;;3.80;;
51438;SDS011;38816;51.142;-0.974;2024-03-02T00:15:55;6.30;;;3.33;;
51438;SDS011;38816;51.142;-0.974;2024-03-02T00:18:31;9.05;;;3.55;;
51438;SDS011;38816;51.142;-0.974;2024-03-02T00:20:58;4.75;;;3.72;;
51438;SDS011;38816;51.142;-0.974;2024-03-02T00:23:27;10.48;;;3.63;;
51438;SDS011;38816;51.142;-0.974;2024-03-02T00:25:54;8.55;;;3.75;;
51438;SDS011;38816;51.142;-0.974;2024-03-02T00:28:21;11.35;;;3.60;;
51438;SDS011;38816;51.142;-0.974;2024-03-02T00:33:21;12.32;;;3.40;;
51438;SDS011;38816;51.142;-0.974;2024-03-02T00:35:47;8.95;;;3.50;;
51438;SDS011;38816;51.142;-0.974;2024-03-02T00:38:14;8.48;;;3.42;;
51438;SDS011;38816;51.142;-0.974;2024-03-02T00:40:41;7.63;;;3.40;;
51438;SDS011;38816;51.142;-0.974;2024-03-02T00:43:11;5.50;;;2.72;;
51438;SDS011;38816;51.142;-0.974;2024-03-02T00:46:00;6.63;;;3.33;;
51438;SDS011;38816;51.142;-0.974;2024-03-02T00:48:26;10.80;;;3.50;;
51438;SDS011;38816;51.142;-0.974;2024-03-02T00:50:54;8.23;;;3.13;;
51438;SDS011;38816;51.142;-0.974;2024-03-02T00:53:21;8.10;;;2.90;;
51438;SDS011;38816;51.142;-0.974;2024-03-02T00:55:52;5.57;;;3.10;;
51438;SDS011;38816;51.142;-0.974;2024-03-02T00:58:18;5.38;;;2.83;;
51438;SDS011;38816;51.142;-0.974;2024-03-02T01:00:43;3.17;;;2.60;;
51438;SDS011;38816;51.142;-0.974;2024-03-02T01:03:09;3.22;;;2.92;;
51438;SDS011;38816;51.142;-0.974;2024-03-02T01:05:41;4.13;;;3.35;;
51438;SDS011;38816;51.142;-0.974;2024-03-02T01:08:07;5.63;;;3.00;;
51438;SDS011;38816;51.142;-0.974;2024-03-02T01:10:33;4.95;;;2.90;;
51438;SDS011;38816;51.142;-0.974;2024-03-02T01:12:59;4.07;;;3.38;;
51438;SDS011;38816;51.142;-0.974;2024-03-02T01:15:24;9.52;;;3.30;;
51438;SDS011;38816;51.142;-0.974;2024-03-02T01:17:50;4.35;;;2.83;;
51438;SDS011;38816;51.142;-0.974;2024-03-02T01:20:15;6.50;;;3.83;;
51438;SDS011;38816;51.142;-0.974;2024-03-02T01:22:42;8.35;;;3.55;;
51438;SDS011;38816;51.142;-0.974;2024-03-02T01:25:08;3.97;;;3.58;;
51438;SDS011;38816;51.142;-0.974;2024-03-02T01:27:33;7.68;;;3.10;;
51438;SDS011;38816;51.142;-0.974;2024-03-02T01:29:59;6.60;;;3.17;;
51438;SDS011;38816;51.142;-0.974;2024-03-02T01:32:25;6.25;;;3.17;;
51438;SDS011;38816;51.142;-0.974;2024-03-02T01:34:50;5.05;;;3.08;;
51438;SDS011;38816;51.142;-0.974;2024-03-02T01:37:16;3.35;;;2.67;;
51438;SDS011;38816;51.142;-0.974;2024-03-02T01:39:41;3.30;;;3.00;;
51438;SDS011;38816;51.142;-0.974;2024-03-02T01:42:07;4.30;;;3.17;;
51438;SDS011;38816;51.142;-0.974;2024-03-02T01:44:35;3.25;;;2.95;;
51438;SDS011;38816;51.142;-0.974;2024-03-02T01:47:01;6.00;;;3.20;;
51438;SDS011;38816;51.142;-0.974;2024-03-02T01:49:27;3.72;;;2.85;;
51438;SDS011;38816;51.142;-0.974;2024-03-02T01:51:52;3.13;;;2.92;;
51438;SDS011;38816;51.142;-0.974;2024-03-02T01:54:18;3.60;;;2.85;;
51438;SDS011;38816;51.142;-0.974;2024-03-02T01:56:43;5.05;;;3.28;;
51438;SDS011;38816;51.142;-0.974;2024-03-02T01:59:10;6.50;;;2.75;;
51438;SDS011;38816;51.142;-0.974;2024-03-02T02:01:35;4.43;;;2.40;;
51438;SDS011;38816;51.142;-0.974;2024-03-02T02:04:01;5.78;;;3.25;;
51438;SDS011;38816;51.142;-0.974;2024-03-02T02:06:26;9.95;;;3.05;;
51438;SDS011;38816;51.142;-0.974;2024-03-02T02:08:52;5.28;;;3.03;;
51438;SDS011;38816;51.142;-0.974;2024-03-02T02:11:17;5.60;;;2.88;;
51438;SDS011;38816;51.142;-0.974;2024-03-02T02:13:43;5.90;;;3.45;;
51438;SDS011;38816;51.142;-0.974;2024-03-02T02:16:09;5.72;;;3.22;;
51438;SDS011;38816;51.142;-0.974;2024-03-02T02:18:35;12.07;;;3.33;;
51438;SDS011;38816;51.142;-0.974;2024-03-02T02:21:03;7.80;;;3.35;;
51438;SDS011;38816;51.142;-0.974;2024-03-02T02:23:28;11.23;;;3.03;;
51438;SDS011;38816;51.142;-0.974;2024-03-02T02:25:54;8.35;;;3.22;;
51438;SDS011;38816;51.142;-0.974;2024-03-02T02:28:19;10.20;;;3.35;;
51438;SDS011;38816;51.142;-0.974;2024-03-02T02:30:45;5.85;;;3.67;;
51438;SDS011;38816;51.142;-0.974;2024-03-02T02:33:11;7.18;;;3.20;;
51438;SDS011;38816;51.142;-0.974;2024-03-02T02:35:36;8.43;;;3.22;;
51438;SDS011;38816;51.142;-0.974;2024-03-02T02:38:02;7.25;;;3.03;;
51438;SDS011;38816;51.142;-0.974;2024-03-02T02:40:28;7.82;;;2.75;;
51438;SDS011;38816;51.142;-0.974;2024-03-02T02:42:57;13.23;;;3.20;;
51438;SDS011;38816;51.142;-0.974;2024-03-02T02:45:24;5.10;;;2.63;;
51438;SDS011;38816;51.142;-0.974;2024-03-02T02:47:49;10.95;;;3.05;;
51438;SDS011;38816;51.142;-0.974;2024-03-02T02:50:15;15.15;;;3.10;;
51438;SDS011;38816;51.142;-0.974;2024-03-02T02:52:41;9.63;;;3.17;;
51438;SDS011;38816;51.142;-0.974;2024-03-02T02:55:08;14.18;;;3.55;;
51438;SDS011;38816;51.142;-0.974;2024-03-02T02:57:35;12.52;;;3.15;;
51438;SDS011;38816;51.142;-0.974;2024-03-02T03:00:07;14.07;;;3.70;;
51438;SDS011;38816;51.142;-0.974;2024-03-02T03:02:42;21.05;;;3.55;;
51438;SDS011;38816;51.142;-0.974;2024-03-02T03:05:09;17.60;;;4.10;;
51438;SDS011;38816;51.142;-0.974;2024-03-02T03:07:37;24.38;;;4.25;;
51438;SDS011;38816;51.142;-0.974;2024-03-02T03:10:04;26.15;;;4.30;;
51438;SDS011;38816;51.142;-0.974;2024-03-02T03:12:31;28.25;;;4.47;;
51438;SDS011;38816;51.142;-0.974;2024-03-02T03:14:57;23.92;;;4.50;;
51438;SDS011;38816;51.142;-0.974;2024-03-02T03:17:23;20.38;;;3.83;;
51438;SDS011;38816;51.142;-0.974;2024-03-02T03:19:49;20.40;;;4.10;;
51438;SDS011;38816;51.142;-0.974;2024-03-02T03:22:15;25.20;;;4.65;;
51438;SDS011;38816;51.142;-0.974;2024-03-02T03:24:41;23.60;;;4.38;;
51438;SDS011;38816;51.142;-0.974;2024-03-02T03:27:06;42.05;;;4.78;;
51438;SDS011;38816;51.142;-0.974;2024-03-02T03:29:32;28.60;;;4.07;;
51438;SDS011;38816;51.142;-0.974;2024-03-02T03:31:57;35.38;;;4.82;;
51438;SDS011;38816;51.142;-0.974;2024-03-02T03:34:23;27.13;;;4.07;;
51438;SDS011;38816;51.142;-0.974;2024-03-02T03:36:48;28.17;;;5.00;;
51438;SDS011;38816;51.142;-0.974;2024-03-02T03:39:14;34.92;;;4.55;;
51438;SDS011;38816;51.142;-0.974;2024-03-02T03:41:43;32.60;;;5.45;;
51438;SDS011;38816;51.142;-0.974;2024-03-02T03:44:08;30.33;;;5.05;;
51438;SDS011;38816;51.142;-0.974;2024-03-02T03:46:34;30.98;;;4.82;;
51438;SDS011;38816;51.142;-0.974;2024-03-02T03:48:59;27.83;;;3.90;;
51438;SDS011;38816;51.142;-0.974;2024-03-02T03:51:24;26.88;;;5.43;;
51438;SDS011;38816;51.142;-0.974;2024-03-02T03:53:50;20.45;;;5.40;;
51438;SDS011;38816;51.142;-0.974;2024-03-02T03:56:15;26.08;;;7.47;;
51438;SDS011;38816;51.142;-0.974;2024-03-02T03:58:41;37.33;;;5.30;;
51438;SDS011;38816;51.142;-0.974;2024-03-02T04:01:06;34.25;;;6.43;;
51438;SDS011;38816;51.142;-0.974;2024-03-02T04:03:32;26.45;;;6.32;;
51438;SDS011;38816;51.142;-0.974;2024-03-02T04:05:57;26.83;;;5.18;;
51438;SDS011;38816;51.142;-0.974;2024-03-02T04:08:23;27.42;;;6.68;;
51438;SDS011;38816;51.142;-0.974;2024-03-02T04:10:48;31.60;;;4.53;;
51438;SDS011;38816;51.142;-0.974;2024-03-02T04:13:16;19.45;;;5.47;;
51438;SDS011;38816;51.142;-0.974;2024-03-02T04:15:42;24.25;;;5.72;;
51438;SDS011;38816;51.142;-0.974;2024-03-02T04:18:07;31.35;;;6.22;;
51438;SDS011;38816;51.142;-0.974;2024-03-02T04:20:33;20.58;;;7.20;;
51438;SDS011;38816;51.142;-0.974;2024-03-02T04:22:58;29.73;;;6.80;;
51438;SDS011;38816;51.142;-0.974;2024-03-02T04:25:24;28.20;;;6.32;;
51438;SDS011;38816;51.142;-0.974;2024-03-02T04:27:49;20.58;;;6.40;;
51438;SDS011;38816;51.142;-0.974;2024-03-02T04:30:15;38.20;;;7.63;;
51438;SDS011;38816;51.142;-0.974;2024-03-02T04:32:40;29.48;;;6.70;;
51438;SDS011;38816;51.142;-0.974;2024-03-02T04:35:06;28.63;;;6.40;;
51438;SDS011;38816;51.142;-0.974;2024-03-02T04:37:35;32.80;;;7.43;;
51438;SDS011;38816;51.142;-0.974;2024-03-02T04:40:00;20.67;;;6.00;;
51438;SDS011;38816;51.142;-0.974;2024-03-02T04:42:26;29.05;;;6.43;;
51438;SDS011;38816;51.142;-0.974;2024-03-02T04:44:51;35.92;;;7.32;;
51438;SDS011;38816;51.142;-0.974;2024-03-02T04:47:17;31.55;;;5.82;;
51438;SDS011;38816;51.142;-0.974;2024-03-02T04:49:42;27.05;;;6.20;;
51438;SDS011;38816;51.142;-0.974;2024-03-02T04:52:08;28.17;;;9.00;;
51438;SDS011;38816;51.142;-0.974;2024-03-02T04:54:34;28.63;;;6.78;;
51438;SDS011;38816;51.142;-0.974;2024-03-02T04:57:19;27.27;;;6.93;;
51438;SDS011;38816;51.142;-0.974;2024-03-02T04:59:45;28.67;;;7.35;;
51438;SDS011;38816;51.142;-0.974;2024-03-02T05:02:10;29.13;;;7.53;;
51438;SDS011;38816;51.142;-0.974;2024-03-02T05:04:36;25.85;;;8.52;;
51438;SDS011;38816;51.142;-0.974;2024-03-02T05:07:01;17.77;;;6.35;;
51438;SDS011;38816;51.142;-0.974;2024-03-02T05:09:26;20.67;;;6.25;;
51438;SDS011;38816;51.142;-0.974;2024-03-02T05:11:52;20.40;;;6.32;;
51438;SDS011;38816;51.142;-0.974;2024-03-02T05:14:29;16.05;;;7.25;;
51438;SDS011;38816;51.142;-0.974;2024-03-02T05:16:55;22.42;;;8.18;;
51438;SDS011;38816;51.142;-0.974;2024-03-02T05:19:20;36.33;;;9.02;;
51438;SDS011;38816;51.142;-0.974;2024-03-02T05:21:46;21.75;;;7.45;;
51438;SDS011;38816;51.142;-0.974;2024-03-02T05:24:11;24.00;;;7.80;;
51438;SDS011;38816;51.142;-0.974;2024-03-02T05:26:37;13.63;;;8.05;;
51438;SDS011;38816;51.142;-0.974;2024-03-02T05:29:02;11.43;;;6.90;;
51438;SDS011;38816;51.142;-0.974;2024-03-02T05:31:28;13.48;;;6.80;;
51438;SDS011;38816;51.142;-0.974;2024-03-02T05:33:53;14.68;;;6.43;;
51438;SDS011;38816;51.142;-0.974;2024-03-02T05:36:25;10.82;;;5.65;;
51438;SDS011;38816;51.142;-0.974;2024-03-02T05:38:50;15.90;;;5.43;;
51438;SDS011;38816;51.142;-0.974;2024-03-02T05:41:15;14.60;;;6.47;;
51438;SDS011;38816;51.142;-0.974;2024-03-02T05:43:41;15.30;;;6.68;;
51438;SDS011;38816;51.142;-0.974;2024-03-02T05:46:07;11.43;;;7.00;;
51438;SDS011;38816;51.142;-0.974;2024-03-02T05:48:32;15.57;;;7.43;;
51438;SDS011;38816;51.142;-0.974;2024-03-02T05:50:57;22.05;;;9.00;;
51438;SDS011;38816;51.142;-0.974;2024-03-02T05:53:23;15.65;;;6.72;;
51438;SDS011;38816;51.142;-0.974;2024-03-02T05:55:48;12.25;;;6.55;;
51438;SDS011;38816;51.142;-0.974;2024-03-02T05:58:18;7.85;;;6.10;;
51438;SDS011;38816;51.142;-0.974;2024-03-02T06:00:50;9.27;;;5.97;;
51438;SDS011;38816;51.142;-0.974;2024-03-02T06:03:15;6.55;;;5.50;;
51438;SDS011;38816;51.142;-0.974;2024-03-02T06:05:41;8.75;;;5.80;;
51438;SDS011;38816;51.142;-0.974;2024-03-02T06:08:06;9.10;;;5.53;;
51438;SDS011;38816;51.142;-0.974;2024-03-02T06:10:32;10.60;;;6.35;;
51438;SDS011;38816;51.142;-0.974;2024-03-02T06:12:58;9.95;;;5.55;;
51438;SDS011;38816;51.142;-0.974;2024-03-02T06:15:24;9.48;;;6.40;;
51438;SDS011;38816;51.142;-0.974;2024-03-02T06:17:49;13.23;;;8.15;;
51438;SDS011;38816;51.142;-0.974;2024-03-02T06:20:15;10.27;;;6.80;;
51438;SDS011;38816;51.142;-0.974;2024-03-02T06:22:41;16.00;;;7.82;;
51438;SDS011;38816;51.142;-0.974;2024-03-02T06:25:06;15.25;;;8.23;;
51438;SDS011;38816;51.142;-0.974;2024-03-02T06:27:32;15.77;;;7.22;;
51438;SDS011;38816;51.142;-0.974;2024-03-02T06:29:57;11.07;;;6.78;;
51438;SDS011;38816;51.142;-0.974;2024-03-02T06:32:23;15.13;;;6.80;;
51438;SDS011;38816;51.142;-0.974;2024-03-02T06:34:50;8.77;;;6.13;;
51438;SDS011;38816;51.142;-0.974;2024-03-02T06:37:15;21.92;;;6.47;;
51438;SDS011;38816;51.142;-0.974;2024-03-02T06:39:42;12.38;;;6.90;;
51438;SDS011;38816;51.142;-0.974;2024-03-02T06:42:08;13.07;;;5.82;;
51438;SDS011;38816;51.142;-0.974;2024-03-02T06:44:34;10.73;;;6.75;;
51438;SDS011;38816;51.142;-0.974;2024-03-02T06:46:59;8.23;;;5.53;;
51438;SDS011;38816;51.142;-0.974;2024-03-02T06:49:24;8.50;;;6.18;;
51438;SDS011;38816;51.142;-0.974;2024-03-02T06:51:50;9.35;;;7.05;;
51438;SDS011;38816;51.142;-0.974;2024-03-02T06:54:15;7.53;;;6.80;;
51438;SDS011;38816;51.142;-0.974;2024-03-02T06:56:41;11.52;;;7.85;;
51438;SDS011;38816;51.142;-0.974;2024-03-02T06:59:06;9.20;;;7.57;;
51438;SDS011;38816;51.142;-0.974;2024-03-02T07:01:32;8.85;;;8.07;;
51438;SDS011;38816;51.142;-0.974;2024-03-02T07:03:57;8.20;;;7.57;;
51438;SDS011;38816;51.142;-0.974;2024-03-02T07:06:23;8.30;;;6.68;;
51438;SDS011;38816;51.142;-0.974;2024-03-02T07:08:48;8.80;;;7.75;;
51438;SDS011;38816;51.142;-0.974;2024-03-02T07:11:16;7.35;;;6.85;;
51438;SDS011;38816;51.142;-0.974;2024-03-02T07:13:42;9.77;;;6.85;;
51438;SDS011;38816;51.142;-0.974;2024-03-02T07:16:07;7.55;;;6.80;;
51438;SDS011;38816;51.142;-0.974;2024-03-02T07:18:36;8.93;;;6.55;;
51438;SDS011;38816;51.142;-0.974;2024-03-02T07:21:09;9.23;;;5.90;;
51438;SDS011;38816;51.142;-0.974;2024-03-02T07:23:35;6.88;;;5.70;;
51438;SDS011;38816;51.142;-0.974;2024-03-02T07:26:01;6.78;;;6.03;;
51438;SDS011;38816;51.142;-0.974;2024-03-02T07:28:27;7.32;;;6.72;;
51438;SDS011;38816;51.142;-0.974;2024-03-02T07:31:02;10.30;;;6.22;;
51438;SDS011;38816;51.142;-0.974;2024-03-02T07:33:29;9.55;;;6.30;;
51438;SDS011;38816;51.142;-0.974;2024-03-02T07:35:56;9.75;;;6.13;;
51438;SDS011;38816;51.142;-0.974;2024-03-02T07:38:22;12.27;;;7.07;;
51438;SDS011;38816;51.142;-0.974;2024-03-02T07:40:48;13.77;;;6.60;;
51438;SDS011;38816;51.142;-0.974;2024-03-02T07:43:18;7.25;;;6.57;;
51438;SDS011;38816;51.142;-0.974;2024-03-02T07:45:44;6.70;;;6.07;;
51438;SDS011;38816;51.142;-0.974;2024-03-02T07:48:10;5.00;;;4.63;;
51438;SDS011;38816;51.142;-0.974;2024-03-02T07:50:36;5.72;;;5.28;;
51438;SDS011;38816;51.142;-0.974;2024-03-02T07:53:02;6.07;;;5.68;;
51438;SDS011;38816;51.142;-0.974;2024-03-02T07:55:28;6.10;;;5.50;;
51438;SDS011;38816;51.142;-0.974;2024-03-02T07:57:54;6.28;;;5.68;;
51438;SDS011;38816;51.142;-0.974;2024-03-02T08:00:20;6.35;;;5.95;;
51438;SDS011;38816;51.142;-0.974;2024-03-02T08:02:50;6.78;;;6.18;;
51438;SDS011;38816;51.142;-0.974;2024-03-02T08:05:20;5.75;;;5.35;;
51438;SDS011;38816;51.142;-0.974;2024-03-02T08:07:46;4.97;;;4.68;;
51438;SDS011;38816;51.142;-0.974;2024-03-02T08:10:12;6.45;;;5.82;;
51438;SDS011;38816;51.142;-0.974;2024-03-02T08:12:38;4.75;;;4.35;;
51438;SDS011;38816;51.142;-0.974;2024-03-02T08:15:04;4.90;;;4.55;;
51438;SDS011;38816;51.142;-0.974;2024-03-02T08:17:30;4.20;;;3.90;;
51438;SDS011;38816;51.142;-0.974;2024-03-02T08:19:56;6.55;;;6.05;;
51438;SDS011;38816;51.142;-0.974;2024-03-02T08:22:23;6.85;;;4.38;;
51438;SDS011;38816;51.142;-0.974;2024-03-02T08:24:51;7.60;;;7.05;;
51438;SDS011;38816;51.142;-0.974;2024-03-02T08:27:16;6.10;;;5.70;;
51438;SDS011;38816;51.142;-0.974;2024-03-02T08:29:42;7.30;;;6.70;;
51438;SDS011;38816;51.142;-0.974;2024-03-02T08:32:07;4.10;;;3.80;;
51438;SDS011;38816;51.142;-0.974;2024-03-02T08:34:33;5.25;;;4.95;;
51438;SDS011;38816;51.142;-0.974;2024-03-02T08:37:00;5.57;;;4.88;;
51438;SDS011;38816;51.142;-0.974;2024-03-02T08:39:27;5.32;;;3.25;;
51438;SDS011;38816;51.142;-0.974;2024-03-02T08:41:53;4.60;;;3.63;;
51438;SDS011;38816;51.142;-0.974;2024-03-02T08:44:18;2.70;;;2.50;;
51438;SDS011;38816;51.142;-0.974;2024-03-02T08:46:44;7.10;;;4.70;;
51438;SDS011;38816;51.142;-0.974;2024-03-02T08:49:10;4.50;;;4.10;;
51438;SDS011;38816;51.142;-0.974;2024-03-02T08:51:36;6.15;;;5.60;;
51438;SDS011;38816;51.142;-0.974;2024-03-02T08:54:01;8.20;;;6.28;;
51438;SDS011;38816;51.142;-0.974;2024-03-02T08:56:26;7.57;;;6.63;;
51438;SDS011;38816;51.142;-0.974;2024-03-02T08:58:52;7.57;;;7.00;;
51438;SDS011;38816;51.142;-0.974;2024-03-02T09:01:18;7.80;;;7.30;;
51438;SDS011;38816;51.142;-0.974;2024-03-02T09:03:44;8.43;;;7.15;;
51438;SDS011;38816;51.142;-0.974;2024-03-02T09:06:13;7.78;;;7.18;;
51438;SDS011;38816;51.142;-0.974;2024-03-02T09:08:39;6.95;;;6.40;;
51438;SDS011;38816;51.142;-0.974;2024-03-02T09:11:08;7.70;;;7.05;;
51438;SDS011;38816;51.142;-0.974;2024-03-02T09:13:35;10.82;;;6.78;;
51438;SDS011;38816;51.142;-0.974;2024-03-02T09:16:01;7.13;;;6.43;;
51438;SDS011;38816;51.142;-0.974;2024-03-02T09:18:27;6.68;;;6.18;;
51438;SDS011;38816;51.142;-0.974;2024-03-02T09:20:52;6.25;;;5.80;;
51438;SDS011;38816;51.142;-0.974;2024-03-02T09:23:18;6.00;;;5.53;;
51438;SDS011;38816;51.142;-0.974;2024-03-02T09:25:43;7.38;;;5.97;;
51438;SDS011;38816;51.142;-0.974;2024-03-02T09:28:09;6.07;;;5.63;;
51438;SDS011;38816;51.142;-0.974;2024-03-02T09:30:35;6.47;;;5.78;;
51438;SDS011;38816;51.142;-0.974;2024-03-02T09:33:00;6.85;;;6.15;;
51438;SDS011;38816;51.142;-0.974;2024-03-02T09:35:25;6.25;;;5.75;;
51438;SDS011;38816;51.142;-0.974;2024-03-02T09:37:51;6.90;;;6.40;;
51438;SDS011;38816;51.142;-0.974;2024-03-02T09:40:16;6.88;;;6.38;;
51438;SDS011;38816;51.142;-0.974;2024-03-02T09:42:42;6.70;;;6.07;;
51438;SDS011;38816;51.142;-0.974;2024-03-02T09:45:09;8.02;;;7.00;;
51438;SDS011;38816;51.142;-0.974;2024-03-02T09:47:36;6.68;;;6.18;;
51438;SDS011;38816;51.142;-0.974;2024-03-02T09:50:02;7.32;;;6.25;;
51438;SDS011;38816;51.142;-0.974;2024-03-02T09:52:28;5.03;;;4.72;;
51438;SDS011;38816;51.142;-0.974;2024-03-02T09:54:59;5.82;;;4.68;;
51438;SDS011;38816;51.142;-0.974;2024-03-02T09:57:24;3.78;;;2.95;;
51438;SDS011;38816;51.142;-0.974;2024-03-02T09:59:50;2.08;;;1.75;;
51438;SDS011;38816;51.142;-0.974;2024-03-02T10:02:15;2.25;;;1.88;;
51438;SDS011;38816;51.142;-0.974;2024-03-02T10:04:41;2.17;;;2.03;;
51438;SDS011;38816;51.142;-0.974;2024-03-02T10:09:39;3.10;;;2.83;;
51438;SDS011;38816;51.142;-0.974;2024-03-02T10:12:06;3.97;;;3.67;;
51438;SDS011;38816;51.142;-0.974;2024-03-02T10:14:33;6.13;;;5.72;;
51438;SDS011;38816;51.142;-0.974;2024-03-02T10:17:08;5.88;;;5.47;;
51438;SDS011;38816;51.142;-0.974;2024-03-02T10:19:35;6.07;;;5.18;;
51438;SDS011;38816;51.142;-0.974;2024-03-02T10:22:05;4.90;;;4.53;;
51438;SDS011;38816;51.142;-0.974;2024-03-02T10:27:06;4.63;;;4.28;;
51438;SDS011;38816;51.142;-0.974;2024-03-02T10:29:39;4.07;;;3.72;;
51438;SDS011;38816;51.142;-0.974;2024-03-02T10:32:05;4.70;;;4.30;;
51438;SDS011;38816;51.142;-0.974;2024-03-02T10:34:34;7.07;;;6.57;;
51438;SDS011;38816;51.142;-0.974;2024-03-02T10:37:01;6.70;;;6.28;;
51438;SDS011;38816;51.142;-0.974;2024-03-02T10:39:27;5.97;;;5.57;;
51438;SDS011;38816;51.142;-0.974;2024-03-02T10:41:53;5.03;;;4.72;;
51438;SDS011;38816;51.142;-0.974;2024-03-02T10:44:21;4.03;;;3.72;;
51438;SDS011;38816;51.142;-0.974;2024-03-02T10:46:47;3.55;;;3.33;;
51438;SDS011;38816;51.142;-0.974;2024-03-02T10:49:15;4.80;;;4.40;;
51438;SDS011;38816;51.142;-0.974;2024-03-02T10:51:42;5.05;;;4.72;;
51438;SDS011;38816;51.142;-0.974;2024-03-02T10:54:08;4.68;;;4.32;;
51438;SDS011;38816;51.142;-0.974;2024-03-02T10:56:37;8.85;;;8.00;;
51438;SDS011;38816;51.142;-0.974;2024-03-02T11:01:57;11.00;;;10.23;;
51438;SDS011;38816;51.142;-0.974;2024-03-02T11:06:54;15.13;;;14.18;;
51438;SDS011;38816;51.142;-0.974;2024-03-02T11:09:25;12.35;;;11.48;;
51438;SDS011;38816;51.142;-0.974;2024-03-02T11:14:37;8.07;;;7.57;;
51438;SDS011;38816;51.142;-0.974;2024-03-02T11:17:08;8.85;;;8.13;;
51438;SDS011;38816;51.142;-0.974;2024-03-02T11:19:35;8.10;;;7.35;;
51438;SDS011;38816;51.142;-0.974;2024-03-02T11:22:03;6.97;;;6.50;;
51438;SDS011;38816;51.142;-0.974;2024-03-02T11:24:31;8.88;;;8.20;;
51438;SDS011;38816;51.142;-0.974;2024-03-02T11:27:01;8.05;;;7.32;;
51438;SDS011;38816;51.142;-0.974;2024-03-02T11:32:03;6.57;;;6.05;;
51438;SDS011;38816;51.142;-0.974;2024-03-02T11:34:30;10.80;;;9.98;;
51438;SDS011;38816;51.142;-0.974;2024-03-02T11:37:03;7.80;;;6.57;;
51438;SDS011;38816;51.142;-0.974;2024-03-02T11:39:29;7.25;;;6.75;;
51438;SDS011;38816;51.142;-0.974;2024-03-02T11:41:56;7.65;;;6.45;;
51438;SDS011;38816;51.142;-0.974;2024-03-02T11:44:22;6.65;;;6.15;;
51438;SDS011;38816;51.142;-0.974;2024-03-02T11:47:05;11.30;;;10.43;;
51438;SDS011;38816;51.142;-0.974;2024-03-02T11:49:45;21.52;;;19.90;;
51438;SDS011;38816;51.142;-0.974;2024-03-02T11:52:14;18.50;;;17.30;;
51438;SDS011;38816;51.142;-0.974;2024-03-02T11:54:42;17.17;;;16.05;;
51438;SDS011;38816;51.142;-0.974;2024-03-02T11:57:12;14.48;;;13.55;;
51438;SDS011;38816;51.142;-0.974;2024-03-02T11:59:39;14.88;;;13.93;;
51438;SDS011;38816;51.142;-0.974;2024-03-02T12:02:05;14.98;;;13.90;;
51438;SDS011;38816;51.142;-0.974;2024-03-02T12:04:31;16.15;;;15.00;;
51438;SDS011;38816;51.142;-0.974;2024-03-02T12:06:58;18.25;;;16.95;;
51438;SDS011;38816;51.142;-0.974;2024-03-02T12:09:26;18.13;;;16.88;;
51438;SDS011;38816;51.142;-0.974;2024-03-02T12:12:02;22.25;;;20.80;;
51438;SDS011;38816;51.142;-0.974;2024-03-02T12:14:31;22.63;;;21.02;;
51438;SDS011;38816;51.142;-0.974;2024-03-02T12:16:57;21.77;;;20.30;;
51438;SDS011;38816;51.142;-0.974;2024-03-02T12:19:26;18.17;;;16.88;;
51438;SDS011;38816;51.142;-0.974;2024-03-02T12:21:53;22.08;;;20.58;;
51438;SDS011;38816;51.142;-0.974;2024-03-02T12:24:20;19.88;;;18.48;;
51438;SDS011;38816;51.142;-0.974;2024-03-02T12:26:47;18.35;;;17.15;;
51438;SDS011;38816;51.142;-0.974;2024-03-02T12:29:13;18.08;;;16.88;;
51438;SDS011;38816;51.142;-0.974;2024-03-02T12:31:40;14.65;;;13.65;;
51438;SDS011;38816;51.142;-0.974;2024-03-02T12:34:05;11.63;;;10.90;;
51438;SDS011;38816;51.142;-0.974;2024-03-02T12:36:36;11.70;;;10.82;;
51438;SDS011;38816;51.142;-0.974;2024-03-02T12:39:07;19.90;;;18.55;;
51438;SDS011;38816;51.142;-0.974;2024-03-02T12:41:35;18.63;;;17.35;;
51438;SDS011;38816;51.142;-0.974;2024-03-02T12:44:02;17.50;;;16.38;;
51438;SDS011;38816;51.142;-0.974;2024-03-02T12:46:28;20.90;;;19.33;;
51438;SDS011;38816;51.142;-0.974;2024-03-02T12:48:53;19.23;;;17.83;;
51438;SDS011;38816;51.142;-0.974;2024-03-02T12:51:19;21.08;;;19.55;;
51438;SDS011;38816;51.142;-0.974;2024-03-02T12:53:45;20.80;;;19.38;;
51438;SDS011;38816;51.142;-0.974;2024-03-02T12:56:10;18.67;;;17.38;;
51438;SDS011;38816;51.142;-0.974;2024-03-02T12:58:39;20.17;;;18.85;;
51438;SDS011;38816;51.142;-0.974;2024-03-02T13:01:08;18.77;;;17.52;;
51438;SDS011;38816;51.142;-0.974;2024-03-02T13:03:37;18.38;;;16.88;;
51438;SDS011;38816;51.142;-0.974;2024-03-02T13:06:04;16.02;;;14.85;;
51438;SDS011;38816;51.142;-0.974;2024-03-02T13:08:31;18.48;;;17.15;;
51438;SDS011;38816;51.142;-0.974;2024-03-02T13:10:58;18.73;;;17.50;;
51438;SDS011;38816;51.142;-0.974;2024-03-02T13:13:23;19.10;;;17.80;;
51438;SDS011;38816;51.142;-0.974;2024-03-02T13:15:49;18.85;;;17.52;;
51438;SDS011;38816;51.142;-0.974;2024-03-02T13:18:14;20.45;;;18.88;;
51438;SDS011;38816;51.142;-0.974;2024-03-02T13:20:43;18.83;;;17.55;;
51438;SDS011;38816;51.142;-0.974;2024-03-02T13:23:08;19.70;;;18.40;;
51438;SDS011;38816;51.142;-0.974;2024-03-02T13:25:35;19.63;;;18.30;;
51438;SDS011;38816;51.142;-0.974;2024-03-02T13:28:01;17.80;;;16.55;;
51438;SDS011;38816;51.142;-0.974;2024-03-02T13:30:28;16.60;;;15.13;;
51438;SDS011;38816;51.142;-0.974;2024-03-02T13:32:53;21.55;;;19.88;;
51438;SDS011;38816;51.142;-0.974;2024-03-02T13:35:19;21.33;;;19.55;;
51438;SDS011;38816;51.142;-0.974;2024-03-02T13:37:44;20.75;;;19.05;;
51438;SDS011;38816;51.142;-0.974;2024-03-02T13:40:10;31.15;;;28.73;;
51438;SDS011;38816;51.142;-0.974;2024-03-02T13:42:41;22.48;;;20.80;;
51438;SDS011;38816;51.142;-0.974;2024-03-02T13:45:07;17.42;;;16.25;;
51438;SDS011;38816;51.142;-0.974;2024-03-02T13:47:33;13.25;;;12.27;;
51438;SDS011;38816;51.142;-0.974;2024-03-02T13:49:58;14.95;;;13.95;;
51438;SDS011;38816;51.142;-0.974;2024-03-02T13:52:24;12.73;;;11.57;;
51438;SDS011;38816;51.142;-0.974;2024-03-02T13:54:50;11.18;;;10.38;;
51438;SDS011;38816;51.142;-0.974;2024-03-02T13:57:17;12.77;;;11.60;;
51438;SDS011;38816;51.142;-0.974;2024-03-02T13:59:44;13.38;;;12.40;;
51438;SDS011;38816;51.142;-0.974;2024-03-02T14:02:11;14.15;;;13.07;;
51438;SDS011;38816;51.142;-0.974;2024-03-02T14:04:37;14.98;;;13.73;;
51438;SDS011;38816;51.142;-0.974;2024-03-02T14:07:03;13.52;;;12.40;;
51438;SDS011;38816;51.142;-0.974;2024-03-02T14:09:31;13.07;;;12.18;;
51438;SDS011;38816;51.142;-0.974;2024-03-02T14:11:57;12.40;;;11.45;;
51438;SDS011;38816;51.142;-0.974;2024-03-02T14:14:25;14.65;;;13.57;;
51438;SDS011;38816;51.142;-0.974;2024-03-02T14:16:52;15.05;;;13.95;;
51438;SDS011;38816;51.142;-0.974;2024-03-02T14:19:19;15.02;;;13.93;;
51438;SDS011;38816;51.142;-0.974;2024-03-02T14:21:45;15.43;;;14.27;;
51438;SDS011;38816;51.142;-0.974;2024-03-02T14:24:10;19.95;;;18.40;;
51438;SDS011;38816;51.142;-0.974;2024-03-02T14:26:36;15.43;;;14.32;;
51438;SDS011;38816;51.142;-0.974;2024-03-02T14:29:02;14.88;;;13.77;;
51438;SDS011;38816;51.142;-0.974;2024-03-02T14:31:28;15.18;;;13.98;;
51438;SDS011;38816;51.142;-0.974;2024-03-02T14:33:54;15.07;;;13.93;;
51438;SDS011;38816;51.142;-0.974;2024-03-02T14:36:20;18.52;;;16.77;;
51438;SDS011;38816;51.142;-0.974;2024-03-02T14:38:45;17.90;;;16.50;;
51438;SDS011;38816;51.142;-0.974;2024-03-02T14:41:11;16.42;;;15.32;;